VN-0004 weather

Yên Bái Air Base
Yen Bai Province, Vietnam

Public forecast

Using degrees Celsius for public forecast. Weather courtesy of forecast.io.

METAR (pilot weather report)

Closest report is Noi Bai International Airport, 61.6 nm (114.1 km) ESE. Retrieved 2019/04/26 01:30 UTC (17 minutes ago):

VVNB 260130Z 10006KT 9999 SCT014 BKN020 29/26 Q1009 NOSIG

TAF (pilot weather forecast)

Forecast is more than 12 hours old.

Closest forecast is Noi Bai International Airport, 61.6 nm (114.1 km) ESE. Retrieved 2019/04/25 00:37 UTC (1 day ago):

TAF VVNB 252300Z 2600/2624 09006KT 7000 SCT015 TEMPO 2609/2615 21015G28KT 2500 +TSRA BKN010 FEW027CB